createdAt,value
2022-08-29T00:00:45.455Z,0.00
2022-08-29T00:01:45.480Z,0.00
2022-08-29T00:02:45.431Z,0.00
2022-08-29T00:03:45.422Z,0.00
2022-08-29T00:04:45.406Z,0.00
2022-08-29T00:05:49.952Z,0.00
2022-08-29T00:06:46.375Z,0.00
2022-08-29T00:07:45.378Z,0.00
2022-08-29T00:08:45.369Z,0.00
2022-08-29T00:09:45.343Z,0.00
2022-08-29T00:10:45.347Z,0.00
2022-08-29T00:11:46.511Z,0.00
2022-08-29T00:12:45.314Z,0.00
2022-08-29T00:13:45.302Z,0.00
2022-08-29T00:14:45.296Z,0.00
2022-08-29T00:15:45.506Z,0.00
2022-08-29T00:16:45.283Z,0.00
2022-08-29T00:17:45.261Z,0.00
2022-08-29T00:18:45.255Z,0.00
2022-08-29T00:19:45.232Z,0.00
2022-08-29T00:20:45.217Z,0.00
2022-08-29T00:21:45.202Z,0.00
2022-08-29T00:22:45.207Z,0.00
2022-08-29T00:23:45.195Z,0.00
2022-08-29T00:24:45.194Z,0.00
2022-08-29T00:25:45.159Z,0.00
2022-08-29T00:26:45.156Z,0.00
2022-08-29T00:27:49.623Z,0.00
2022-08-29T00:28:45.147Z,0.00
2022-08-29T00:29:45.115Z,0.00
2022-08-29T00:30:45.115Z,0.00
2022-08-29T00:31:45.149Z,0.00
2022-08-29T00:32:45.078Z,0.00
2022-08-29T00:33:45.070Z,0.00
2022-08-29T00:34:45.080Z,0.00
2022-08-29T00:35:45.073Z,0.00
2022-08-29T00:36:49.005Z,0.00
2022-08-29T00:37:45.027Z,0.00
2022-08-29T00:38:45.020Z,0.00
2022-08-29T00:39:45.012Z,0.00
2022-08-29T00:40:47.870Z,0.00
2022-08-29T00:41:45.988Z,0.00
2022-08-29T00:42:44.972Z,0.00
2022-08-29T00:43:44.957Z,0.00
2022-08-29T00:44:44.942Z,0.00
2022-08-29T00:45:45.022Z,0.00
2022-08-29T00:46:44.929Z,0.00
2022-08-29T00:47:44.924Z,0.00
2022-08-29T00:48:44.917Z,0.00
2022-08-29T00:49:44.902Z,0.00
2022-08-29T00:50:44.902Z,0.00
2022-08-29T00:51:44.875Z,0.00
2022-08-29T00:52:44.859Z,0.00
2022-08-29T00:53:44.851Z,0.00
2022-08-29T00:54:44.833Z,0.00
2022-08-29T00:55:44.830Z,0.00
2022-08-29T00:56:45.827Z,0.00
2022-08-29T00:57:44.794Z,0.00
2022-08-29T00:58:44.810Z,0.00
2022-08-29T00:59:44.772Z,0.00
2022-08-29T01:00:44.861Z,0.00
2022-08-29T01:01:44.821Z,0.00
2022-08-29T01:02:44.924Z,0.00
2022-08-29T01:03:44.774Z,0.00
2022-08-29T01:04:44.727Z,0.00
2022-08-29T01:05:44.712Z,0.00
2022-08-29T01:06:44.694Z,0.00
2022-08-29T01:07:44.709Z,0.00
2022-08-29T01:08:44.692Z,0.00
2022-08-29T01:09:44.680Z,0.00
2022-08-29T01:10:44.677Z,0.00
2022-08-29T01:11:44.647Z,0.00
2022-08-29T01:12:44.644Z,0.00
2022-08-29T01:13:44.623Z,0.00
2022-08-29T01:14:44.616Z,0.00
2022-08-29T01:15:44.601Z,0.00
2022-08-29T01:16:44.692Z,0.00
2022-08-29T01:17:44.579Z,0.00
2022-08-29T01:18:44.563Z,0.00
2022-08-29T01:19:44.563Z,0.00
2022-08-29T01:20:44.536Z,0.00
2022-08-29T01:21:44.523Z,0.00
2022-08-29T01:22:44.545Z,0.00
2022-08-29T01:23:44.520Z,0.00
2022-08-29T01:24:44.508Z,0.00
2022-08-29T01:25:44.485Z,0.00
2022-08-29T01:26:44.470Z,0.00
2022-08-29T01:27:44.475Z,0.00
2022-08-29T01:28:44.470Z,0.00
2022-08-29T01:29:44.440Z,0.00
2022-08-29T01:30:44.440Z,0.00
2022-08-29T01:31:56.906Z,0.00
2022-08-29T01:32:45.417Z,0.00
2022-08-29T01:33:44.398Z,0.00
2022-08-29T01:34:44.374Z,0.00
2022-08-29T01:35:44.362Z,0.00
2022-08-29T01:36:44.359Z,0.00
2022-08-29T01:37:44.365Z,0.00
2022-08-29T01:38:44.337Z,0.00
2022-08-29T01:39:44.329Z,0.00
2022-08-29T01:40:44.302Z,0.00
2022-08-29T01:41:44.318Z,0.00
2022-08-29T01:42:44.288Z,0.00
2022-08-29T01:43:44.294Z,0.00
2022-08-29T01:44:44.270Z,0.00
2022-08-29T01:45:44.286Z,0.00
2022-08-29T01:46:44.241Z,0.00
2022-08-29T01:47:44.242Z,0.00
2022-08-29T01:48:44.216Z,0.00
2022-08-29T01:49:44.220Z,0.00
2022-08-29T01:50:44.207Z,0.00
2022-08-29T01:51:44.181Z,0.00
2022-08-29T01:52:44.166Z,0.00
2022-08-29T01:53:44.181Z,0.00
2022-08-29T01:54:44.202Z,0.00
2022-08-29T01:55:44.132Z,0.00
2022-08-29T01:56:44.140Z,0.00
2022-08-29T01:57:44.126Z,0.00
2022-08-29T01:58:44.105Z,0.00
2022-08-29T01:59:44.089Z,0.00
2022-08-29T02:00:44.149Z,0.00
2022-08-29T02:01:44.178Z,0.00
2022-08-29T02:02:44.066Z,0.00
2022-08-29T02:03:44.051Z,0.00
2022-08-29T02:04:44.052Z,0.00
2022-08-29T02:05:44.037Z,0.00
2022-08-29T02:06:44.018Z,0.00
2022-08-29T02:07:44.018Z,0.00
2022-08-29T02:08:43.986Z,0.00
2022-08-29T02:09:45.915Z,0.00
2022-08-29T02:10:43.985Z,0.00
2022-08-29T02:11:43.959Z,0.00
2022-08-29T02:12:43.954Z,0.00
2022-08-29T02:13:43.945Z,0.00
2022-08-29T02:14:43.934Z,0.00
2022-08-29T02:15:43.915Z,0.00
2022-08-29T02:16:43.973Z,0.00
2022-08-29T02:17:43.892Z,0.00
2022-08-29T02:18:43.879Z,0.00
2022-08-29T02:19:43.869Z,0.00
2022-08-29T02:20:43.868Z,0.00
2022-08-29T02:21:43.843Z,0.00
2022-08-29T02:22:43.834Z,0.00
2022-08-29T02:23:43.825Z,0.00
2022-08-29T02:24:43.814Z,0.00
2022-08-29T02:25:43.795Z,0.00
2022-08-29T02:26:43.783Z,0.00
2022-08-29T02:27:43.778Z,0.00
2022-08-29T02:28:43.771Z,0.00
2022-08-29T02:29:43.799Z,0.00
2022-08-29T02:30:43.748Z,0.00
2022-08-29T02:31:43.768Z,0.00
2022-08-29T02:32:43.714Z,0.00
2022-08-29T02:33:43.707Z,0.00
2022-08-29T02:34:44.709Z,0.00
2022-08-29T02:35:43.683Z,0.00
2022-08-29T02:36:44.008Z,0.00
2022-08-29T02:37:43.663Z,0.00
2022-08-29T02:38:43.668Z,0.00
2022-08-29T02:39:43.648Z,0.00
2022-08-29T02:40:43.661Z,0.00
2022-08-29T02:41:44.600Z,0.00
2022-08-29T02:42:43.603Z,0.00
2022-08-29T02:43:43.598Z,0.00
2022-08-29T02:44:43.592Z,0.00
2022-08-29T02:45:43.585Z,0.00
2022-08-29T02:46:43.593Z,0.00
2022-08-29T02:47:43.557Z,0.00
2022-08-29T02:48:49.195Z,0.00
2022-08-29T02:49:44.517Z,0.00
2022-08-29T02:50:43.523Z,0.00
2022-08-29T02:51:43.509Z,0.00
2022-08-29T02:52:43.513Z,0.00
2022-08-29T02:53:43.475Z,0.00
2022-08-29T02:54:43.479Z,0.00
2022-08-29T02:55:43.466Z,0.00
2022-08-29T02:56:43.447Z,0.00
2022-08-29T02:57:43.447Z,0.00
2022-08-29T02:58:43.434Z,0.00
2022-08-29T02:59:43.407Z,0.00
2022-08-29T03:00:43.454Z,0.00
2022-08-29T03:01:43.442Z,0.00
2022-08-29T03:02:43.387Z,0.00
2022-08-29T03:03:43.386Z,0.00
2022-08-29T03:04:43.347Z,0.00
2022-08-29T03:05:43.342Z,0.00
2022-08-29T03:06:43.329Z,0.00
2022-08-29T03:07:45.995Z,0.00
2022-08-29T03:08:44.321Z,0.00
2022-08-29T03:09:43.292Z,0.00
2022-08-29T03:10:43.292Z,0.00
2022-08-29T03:11:43.300Z,0.00
2022-08-29T03:12:43.259Z,0.00
2022-08-29T03:13:43.268Z,0.00
2022-08-29T03:14:43.251Z,0.00
2022-08-29T03:15:43.417Z,0.00
2022-08-29T03:16:43.220Z,0.00
2022-08-29T03:17:43.207Z,0.00
2022-08-29T03:18:43.200Z,0.00
2022-08-29T03:19:43.188Z,0.00
2022-08-29T03:20:43.269Z,0.00
2022-08-29T03:21:43.155Z,0.00
2022-08-29T03:22:43.148Z,0.00
2022-08-29T03:23:43.132Z,0.00
2022-08-29T03:24:43.137Z,0.00
2022-08-29T03:25:43.114Z,0.00
2022-08-29T03:26:43.120Z,0.00
2022-08-29T03:27:43.101Z,0.00
2022-08-29T03:28:43.093Z,0.00
2022-08-29T03:29:43.066Z,0.00
2022-08-29T03:30:43.068Z,0.00
2022-08-29T03:31:43.084Z,0.00
2022-08-29T03:32:43.046Z,0.00
2022-08-29T03:33:43.016Z,0.00
2022-08-29T03:34:43.004Z,0.00
2022-08-29T03:35:43.037Z,0.00
2022-08-29T03:36:42.997Z,0.00
2022-08-29T03:37:42.979Z,0.00
2022-08-29T03:38:42.973Z,0.00
2022-08-29T03:39:42.984Z,0.00
2022-08-29T03:40:43.062Z,0.00
2022-08-29T03:41:42.942Z,0.00
2022-08-29T03:42:42.914Z,0.00
2022-08-29T03:43:42.904Z,0.00
2022-08-29T03:44:42.909Z,0.00
2022-08-29T03:45:42.909Z,0.00
2022-08-29T03:46:42.963Z,0.00
2022-08-29T03:47:42.874Z,0.00
2022-08-29T03:48:42.846Z,0.00
2022-08-29T03:49:42.841Z,0.00
2022-08-29T03:50:42.831Z,0.00
2022-08-29T03:51:42.831Z,0.00
2022-08-29T03:52:42.810Z,0.00
2022-08-29T03:53:42.805Z,0.00
2022-08-29T03:54:42.791Z,0.00
2022-08-29T03:55:42.765Z,0.00
2022-08-29T03:56:42.777Z,0.00
2022-08-29T03:57:42.751Z,0.00
2022-08-29T03:58:42.756Z,0.00
2022-08-29T03:59:42.744Z,0.00
2022-08-29T04:00:42.719Z,0.00
2022-08-29T04:01:42.753Z,0.00
2022-08-29T04:02:42.848Z,0.00
2022-08-29T04:03:42.684Z,0.00
2022-08-29T04:04:42.675Z,0.00
2022-08-29T04:05:42.653Z,0.00
2022-08-29T04:06:42.666Z,4.00
2022-08-29T04:07:42.652Z,4.00
2022-08-29T04:08:42.645Z,0.00
2022-08-29T04:09:42.614Z,4.00
2022-08-29T04:10:42.614Z,4.00
2022-08-29T04:11:42.599Z,0.00
2022-08-29T04:12:42.594Z,4.00
2022-08-29T04:13:42.618Z,4.00
2022-08-29T04:14:42.557Z,8.00
2022-08-29T04:15:42.623Z,8.00
2022-08-29T04:16:42.536Z,8.00
2022-08-29T04:17:52.666Z,8.00
2022-08-29T04:18:43.531Z,12.00
2022-08-29T04:19:42.497Z,16.00
2022-08-29T04:20:42.489Z,16.00
2022-08-29T04:21:42.475Z,16.00
2022-08-29T04:22:42.458Z,24.00
2022-08-29T04:23:42.452Z,28.00
2022-08-29T04:24:42.453Z,28.00
2022-08-29T04:25:42.436Z,36.00
2022-08-29T04:26:42.422Z,44.00
2022-08-29T04:27:42.401Z,52.00
2022-08-29T04:28:42.402Z,56.00
2022-08-29T04:29:42.385Z,68.00
2022-08-29T04:30:42.399Z,76.00
2022-08-29T04:31:42.400Z,88.00
2022-08-29T04:32:42.347Z,104.00
2022-08-29T04:33:42.334Z,116.00
2022-08-29T04:34:42.326Z,132.00
2022-08-29T04:35:42.316Z,148.00
2022-08-29T04:36:42.339Z,164.00
2022-08-29T04:37:42.308Z,184.00
2022-08-29T04:38:42.283Z,200.00
2022-08-29T04:39:42.268Z,220.00
2022-08-29T04:40:42.324Z,236.00
2022-08-29T04:41:42.264Z,256.00
2022-08-29T04:42:42.257Z,276.00
2022-08-29T04:43:42.222Z,304.00
2022-08-29T04:44:42.229Z,328.00
2022-08-29T04:45:42.205Z,356.00
2022-08-29T04:46:42.239Z,384.00
2022-08-29T04:47:42.179Z,416.00
2022-08-29T04:48:42.166Z,444.00
2022-08-29T04:49:42.151Z,472.00
2022-08-29T04:50:42.151Z,504.00
2022-08-29T04:51:42.137Z,536.00
2022-08-29T04:52:42.152Z,564.00
2022-08-29T04:53:42.432Z,596.00
2022-08-29T04:54:42.107Z,628.00
2022-08-29T04:55:42.087Z,668.00
2022-08-29T04:56:44.383Z,708.00
2022-08-29T04:57:43.068Z,748.00
2022-08-29T04:58:42.081Z,792.00
2022-08-29T04:59:42.042Z,832.00
2022-08-29T05:00:42.046Z,864.00
2022-08-29T05:01:42.443Z,896.00
2022-08-29T05:02:42.040Z,924.00
2022-08-29T05:03:41.993Z,956.00
2022-08-29T05:04:41.992Z,980.00
2022-08-29T05:05:42.006Z,1016.00
2022-08-29T05:06:42.001Z,1048.00
2022-08-29T05:07:41.958Z,1076.00
2022-08-29T05:08:41.945Z,1108.00
2022-08-29T05:09:41.945Z,1148.00
2022-08-29T05:10:41.959Z,1200.00
2022-08-29T05:11:41.941Z,1252.00
2022-08-29T05:12:41.899Z,1312.00
2022-08-29T05:13:42.500Z,1376.00
2022-08-29T05:14:41.884Z,1440.00
2022-08-29T05:15:41.989Z,1500.00
2022-08-29T05:16:41.873Z,1564.00
2022-08-29T05:17:41.843Z,1632.00
2022-08-29T05:18:41.849Z,1712.00
2022-08-29T05:19:45.111Z,1792.00
2022-08-29T05:20:41.811Z,1880.00
2022-08-29T05:21:41.806Z,1960.00
2022-08-29T05:22:41.785Z,2036.00
2022-08-29T05:23:41.777Z,2100.00
2022-08-29T05:24:41.802Z,2160.00
2022-08-29T05:25:41.767Z,2224.00
2022-08-29T05:26:41.752Z,2284.00
2022-08-29T05:27:41.727Z,2352.00
2022-08-29T05:28:41.723Z,2416.00
2022-08-29T05:29:41.739Z,2484.00
2022-08-29T05:30:41.733Z,2548.00
2022-08-29T05:31:41.780Z,2612.00
2022-08-29T05:32:41.668Z,2680.00
2022-08-29T05:33:41.661Z,2752.00
2022-08-29T05:34:41.681Z,2820.00
2022-08-29T05:35:41.649Z,2872.00
2022-08-29T05:36:41.637Z,2912.00
2022-08-29T05:37:41.623Z,2960.00
2022-08-29T05:38:41.606Z,3016.00
2022-08-29T05:39:41.635Z,3060.00
2022-08-29T05:40:41.671Z,3112.00
2022-08-29T05:41:41.570Z,3188.00
2022-08-29T05:42:41.562Z,3208.00
2022-08-29T05:43:41.544Z,3212.00
2022-08-29T05:44:41.542Z,3224.00
2022-08-29T05:45:41.551Z,3284.00
2022-08-29T05:46:41.551Z,3368.00
2022-08-29T05:47:41.506Z,3420.00
2022-08-29T05:48:41.511Z,3452.00
2022-08-29T05:49:41.549Z,3524.00
2022-08-29T05:50:41.483Z,3556.00
2022-08-29T05:51:41.459Z,3588.00
2022-08-29T05:52:41.447Z,3672.00
2022-08-29T05:53:41.451Z,3776.00
2022-08-29T05:54:41.426Z,3880.00
2022-08-29T05:55:41.455Z,3960.00
2022-08-29T05:56:41.924Z,4020.00
2022-08-29T05:57:41.438Z,4088.00
2022-08-29T05:58:41.399Z,4156.00
2022-08-29T05:59:41.416Z,4228.00
2022-08-29T06:00:41.348Z,4352.00
2022-08-29T06:01:41.354Z,4404.00
2022-08-29T06:02:41.476Z,4360.00
2022-08-29T06:03:45.849Z,4352.00
2022-08-29T06:04:41.341Z,4288.00
2022-08-29T06:05:41.302Z,4172.00
2022-08-29T06:06:41.291Z,4184.00
2022-08-29T06:07:41.269Z,4240.00
2022-08-29T06:08:41.317Z,4300.00
2022-08-29T06:09:41.249Z,4392.00
2022-08-29T06:10:41.245Z,4528.00
2022-08-29T06:11:41.235Z,4600.00
2022-08-29T06:12:41.228Z,4632.00
2022-08-29T06:13:41.235Z,4724.00
2022-08-29T06:14:41.209Z,4832.00
2022-08-29T06:15:42.293Z,4940.00
2022-08-29T06:16:41.173Z,5044.00
2022-08-29T06:17:41.174Z,5152.00
2022-08-29T06:18:41.164Z,5264.00
2022-08-29T06:19:41.143Z,5360.00
2022-08-29T06:20:41.148Z,5452.00
2022-08-29T06:21:41.200Z,5544.00
2022-08-29T06:22:41.126Z,5636.00
2022-08-29T06:23:41.095Z,5684.00
2022-08-29T06:24:44.375Z,5692.00
2022-08-29T06:25:41.077Z,5720.00
2022-08-29T06:26:41.079Z,5764.00
2022-08-29T06:27:41.058Z,5836.00
2022-08-29T06:28:41.040Z,5864.00
2022-08-29T06:29:43.505Z,5884.00
2022-08-29T06:30:41.071Z,5968.00
2022-08-29T06:31:41.000Z,6100.00
2022-08-29T06:32:40.995Z,6140.00
2022-08-29T06:33:41.014Z,6128.00
2022-08-29T06:34:40.972Z,6028.00
2022-08-29T06:35:40.961Z,5932.00
2022-08-29T06:36:40.962Z,5872.00
2022-08-29T06:37:40.946Z,5744.00
2022-08-29T06:38:40.931Z,5668.00
2022-08-29T06:39:40.968Z,5612.00
2022-08-29T06:40:40.978Z,5596.00
2022-08-29T06:41:40.899Z,5544.00
2022-08-29T06:42:40.876Z,5552.00
2022-08-29T06:43:41.049Z,5548.00
2022-08-29T06:44:44.373Z,5524.00
2022-08-29T06:45:40.836Z,5448.00
2022-08-29T06:46:40.908Z,5460.00
2022-08-29T06:47:40.816Z,5308.00
2022-08-29T06:48:40.836Z,5128.00
2022-08-29T06:49:40.814Z,4976.00
2022-08-29T06:50:45.314Z,4836.00
2022-08-29T06:51:40.798Z,4728.00
2022-08-29T06:52:40.788Z,4624.00
2022-08-29T06:53:41.012Z,4536.00
2022-08-29T06:54:40.744Z,4452.00
2022-08-29T06:55:40.968Z,4384.00
2022-08-29T06:56:40.718Z,4284.00
2022-08-29T06:57:40.768Z,4204.00
2022-08-29T06:58:40.703Z,4148.00
2022-08-29T06:59:40.731Z,4112.00
2022-08-29T07:00:40.946Z,4092.00
2022-08-29T07:01:40.712Z,4076.00
2022-08-29T07:02:40.751Z,4060.00
2022-08-29T07:03:40.658Z,4076.00
2022-08-29T07:04:40.642Z,4112.00
2022-08-29T07:05:40.630Z,4148.00
2022-08-29T07:06:40.601Z,4184.00
2022-08-29T07:07:40.636Z,4244.00
2022-08-29T07:08:54.691Z,4308.00
2022-08-29T07:09:41.588Z,4364.00
2022-08-29T07:10:40.571Z,4400.00
2022-08-29T07:11:41.347Z,4468.00
2022-08-29T07:12:40.568Z,4520.00
2022-08-29T07:13:40.544Z,4596.00
2022-08-29T07:14:40.512Z,4660.00
2022-08-29T07:15:40.569Z,4688.00
2022-08-29T07:16:40.525Z,4744.00
2022-08-29T07:17:40.608Z,4828.00
2022-08-29T07:18:40.465Z,4948.00
2022-08-29T07:19:40.486Z,5052.00
2022-08-29T07:20:40.450Z,5056.00
2022-08-29T07:21:40.837Z,5076.00
2022-08-29T07:22:40.430Z,5172.00
2022-08-29T07:23:40.414Z,5288.00
2022-08-29T07:24:40.393Z,5380.00
2022-08-29T07:25:40.454Z,5416.00
2022-08-29T07:26:40.417Z,5412.00
2022-08-29T07:27:40.362Z,5316.00
2022-08-29T07:28:42.240Z,5064.00
2022-08-29T07:29:41.344Z,5156.00
2022-08-29T07:30:40.409Z,5124.00
2022-08-29T07:31:40.345Z,5068.00
2022-08-29T07:32:40.318Z,5060.00
2022-08-29T07:33:40.302Z,5040.00
2022-08-29T07:34:40.300Z,5084.00
2022-08-29T07:35:40.285Z,5048.00
2022-08-29T07:36:40.290Z,4972.00
2022-08-29T07:37:40.268Z,4984.00
2022-08-29T07:38:40.265Z,5028.00
2022-08-29T07:39:40.231Z,5012.00
2022-08-29T07:40:40.356Z,5060.00
2022-08-29T07:41:40.240Z,5108.00
2022-08-29T07:42:40.210Z,5148.00
2022-08-29T07:43:40.471Z,5188.00
2022-08-29T07:44:40.184Z,5248.00
2022-08-29T07:45:40.233Z,5324.00
2022-08-29T07:46:40.180Z,5344.00
2022-08-29T07:47:40.166Z,5352.00
2022-08-29T07:48:40.155Z,5384.00
2022-08-29T07:49:42.000Z,5360.00
2022-08-29T07:50:40.205Z,5380.00
2022-08-29T07:51:44.626Z,5412.00
2022-08-29T07:52:40.099Z,5424.00
2022-08-29T07:53:40.063Z,5428.00
2022-08-29T07:54:40.070Z,5264.00
2022-08-29T07:55:40.047Z,5364.00
2022-08-29T07:56:40.050Z,5440.00
2022-08-29T07:57:40.175Z,5416.00
2022-08-29T07:58:40.028Z,5336.00
2022-08-29T07:59:40.003Z,5372.00
2022-08-29T08:00:39.983Z,5432.00
2022-08-29T08:01:40.285Z,5464.00
2022-08-29T08:02:39.978Z,5500.00
2022-08-29T08:03:39.983Z,5500.00
2022-08-29T08:04:39.973Z,5324.00
2022-08-29T08:05:39.968Z,5520.00
2022-08-29T08:06:39.937Z,5448.00
2022-08-29T08:07:40.354Z,5556.00
2022-08-29T08:08:39.915Z,5500.00
2022-08-29T08:09:39.915Z,5340.00
2022-08-29T08:10:39.886Z,5240.00
2022-08-29T08:11:39.879Z,5264.00
2022-08-29T08:12:39.885Z,5332.00
2022-08-29T08:13:39.861Z,5632.00
2022-08-29T08:14:39.846Z,5648.00
2022-08-29T08:15:39.833Z,5656.00
2022-08-29T08:16:44.120Z,5804.00
2022-08-29T08:17:43.946Z,5776.00
2022-08-29T08:18:39.794Z,5868.00
2022-08-29T08:19:39.820Z,5808.00
2022-08-29T08:20:39.761Z,5708.00
2022-08-29T08:21:44.342Z,5684.00
2022-08-29T08:22:40.742Z,5688.00
2022-08-29T08:23:39.774Z,5640.00
2022-08-29T08:24:39.729Z,5436.00
2022-08-29T08:25:39.719Z,5316.00
2022-08-29T08:26:39.773Z,5360.00
2022-08-29T08:27:43.624Z,5340.00
2022-08-29T08:28:39.677Z,5324.00
2022-08-29T08:29:39.670Z,5396.00
2022-08-29T08:30:39.731Z,5500.00
2022-08-29T08:31:39.809Z,5536.00
2022-08-29T08:32:42.072Z,5612.00
2022-08-29T08:33:40.655Z,5644.00
2022-08-29T08:34:39.614Z,5612.00
2022-08-29T08:35:41.914Z,5808.00
2022-08-29T08:36:41.398Z,6084.00
2022-08-29T08:37:40.433Z,6260.00
2022-08-29T08:38:39.754Z,6208.00
2022-08-29T08:39:39.629Z,6168.00
2022-08-29T08:40:39.600Z,6152.00
2022-08-29T08:41:39.557Z,5908.00
2022-08-29T08:42:39.520Z,5920.00
2022-08-29T08:43:39.515Z,5808.00
2022-08-29T08:44:39.619Z,5756.00
2022-08-29T08:45:39.574Z,5744.00
2022-08-29T08:46:39.531Z,5796.00
2022-08-29T08:47:39.522Z,5856.00
2022-08-29T08:48:39.460Z,6168.00
2022-08-29T08:49:39.458Z,6204.00
2022-08-29T08:50:39.463Z,6144.00
2022-08-29T08:51:39.462Z,5948.00
2022-08-29T08:52:39.420Z,5976.00
2022-08-29T08:53:39.401Z,5780.00
2022-08-29T08:54:39.424Z,5748.00
2022-08-29T08:55:39.405Z,5720.00
2022-08-29T08:56:39.374Z,5720.00
2022-08-29T08:57:39.362Z,5808.00
2022-08-29T08:58:39.348Z,5696.00
2022-08-29T08:59:39.338Z,5772.00
2022-08-29T09:00:39.337Z,5636.00
2022-08-29T09:01:39.343Z,5676.00
2022-08-29T09:02:39.395Z,5848.00
2022-08-29T09:03:39.317Z,5784.00
2022-08-29T09:04:39.305Z,5896.00
2022-08-29T09:05:39.512Z,5928.00
2022-08-29T09:06:39.277Z,5912.00
2022-08-29T09:07:39.249Z,5940.00
2022-08-29T09:08:39.246Z,5944.00
2022-08-29T09:09:39.244Z,5964.00
2022-08-29T09:10:39.290Z,5964.00
2022-08-29T09:11:39.208Z,5968.00
2022-08-29T09:12:39.206Z,5976.00
2022-08-29T09:13:39.165Z,5960.00
2022-08-29T09:14:39.160Z,5920.00
2022-08-29T09:15:39.163Z,5852.00
2022-08-29T09:16:39.183Z,5788.00
2022-08-29T09:17:39.133Z,5764.00
2022-08-29T09:18:39.427Z,5888.00
2022-08-29T09:19:39.130Z,5860.00
2022-08-29T09:20:39.114Z,5888.00
2022-08-29T09:21:41.633Z,5864.00
2022-08-29T09:22:39.089Z,5988.00
2022-08-29T09:23:39.066Z,5976.00
2022-08-29T09:24:39.087Z,5940.00
2022-08-29T09:25:39.363Z,5932.00
2022-08-29T09:26:39.071Z,5976.00
2022-08-29T09:27:39.038Z,6036.00
2022-08-29T09:28:39.001Z,6056.00
2022-08-29T09:29:39.011Z,6016.00
2022-08-29T09:30:39.002Z,6084.00
2022-08-29T09:31:39.116Z,6088.00
2022-08-29T09:32:39.000Z,6092.00
2022-08-29T09:33:38.969Z,6132.00
2022-08-29T09:34:57.432Z,6132.00
2022-08-29T09:35:39.935Z,6072.00
2022-08-29T09:36:38.978Z,6124.00
2022-08-29T09:37:39.187Z,6184.00
2022-08-29T09:38:38.904Z,6260.00
2022-08-29T09:39:38.883Z,6392.00
2022-08-29T09:40:38.927Z,6452.00
2022-08-29T09:41:38.861Z,6496.00
2022-08-29T09:42:38.885Z,6572.00
2022-08-29T09:43:38.853Z,6644.00
2022-08-29T09:44:38.824Z,6632.00
2022-08-29T09:45:38.844Z,6656.00
2022-08-29T09:46:38.972Z,6680.00
2022-08-29T09:47:38.822Z,6708.00
2022-08-29T09:48:38.857Z,6704.00
2022-08-29T09:49:38.785Z,6680.00
2022-08-29T09:50:38.823Z,6652.00
2022-08-29T09:51:38.738Z,6672.00
2022-08-29T09:52:38.777Z,6720.00
2022-08-29T09:53:38.757Z,6732.00
2022-08-29T09:54:38.719Z,6624.00
2022-08-29T09:55:38.714Z,6792.00
2022-08-29T09:56:38.710Z,6816.00
2022-08-29T09:57:38.706Z,6792.00
2022-08-29T09:58:40.253Z,6876.00
2022-08-29T09:59:39.751Z,6900.00
2022-08-29T10:00:38.832Z,6924.00
2022-08-29T10:01:38.715Z,6976.00
2022-08-29T10:02:38.684Z,7032.00
2022-08-29T10:03:38.618Z,6976.00
2022-08-29T10:04:38.602Z,7144.00
2022-08-29T10:05:38.621Z,7204.00
2022-08-29T10:06:43.473Z,7368.00
2022-08-29T10:07:39.557Z,7416.00
2022-08-29T10:08:38.580Z,7568.00
2022-08-29T10:09:38.536Z,7612.00
2022-08-29T10:10:38.574Z,7736.00
2022-08-29T10:11:38.513Z,7804.00
2022-08-29T10:12:38.624Z,7848.00
2022-08-29T10:13:38.502Z,7896.00
2022-08-29T10:14:38.487Z,7992.00
2022-08-29T10:15:52.035Z,8064.00
2022-08-29T10:16:39.519Z,8156.00
2022-08-29T10:17:38.477Z,8144.00
2022-08-29T10:18:38.459Z,8096.00
2022-08-29T10:19:38.433Z,8092.00
2022-08-29T10:20:38.420Z,7944.00
2022-08-29T10:21:38.445Z,7984.00
2022-08-29T10:22:38.426Z,7880.00
2022-08-29T10:23:38.402Z,8116.00
2022-08-29T10:24:38.377Z,8156.00
2022-08-29T10:25:38.369Z,8324.00
2022-08-29T10:26:38.383Z,8296.00
2022-08-29T10:27:38.357Z,8408.00
2022-08-29T10:28:38.331Z,8448.00
2022-08-29T10:29:38.339Z,8540.00
2022-08-29T10:30:38.347Z,8580.00
2022-08-29T10:31:39.023Z,8568.00
2022-08-29T10:32:38.310Z,8576.00
2022-08-29T10:33:38.273Z,8636.00
2022-08-29T10:34:38.267Z,8680.00
2022-08-29T10:35:38.280Z,8916.00
2022-08-29T10:36:38.257Z,8956.00
2022-08-29T10:37:38.237Z,8768.00
2022-08-29T10:38:38.222Z,8852.00
2022-08-29T10:39:38.210Z,8796.00
2022-08-29T10:40:38.328Z,8860.00
2022-08-29T10:41:39.223Z,8992.00
2022-08-29T10:42:38.178Z,8992.00
2022-08-29T10:43:38.973Z,9140.00
2022-08-29T10:44:38.149Z,9224.00
2022-08-29T10:45:38.222Z,9476.00
2022-08-29T10:46:38.176Z,9628.00
2022-08-29T10:47:38.132Z,9588.00
2022-08-29T10:48:38.107Z,9108.00
2022-08-29T10:49:41.844Z,9648.00
2022-08-29T10:50:46.522Z,9728.00
2022-08-29T10:51:40.026Z,9708.00
2022-08-29T10:52:38.146Z,9516.00
2022-08-29T10:53:38.071Z,9352.00
2022-08-29T10:54:38.114Z,9572.00
2022-08-29T10:55:38.048Z,9188.00
2022-08-29T10:56:38.032Z,9816.00
2022-08-29T10:57:38.092Z,9960.00
2022-08-29T10:58:38.049Z,10056.00
2022-08-29T10:59:38.010Z,10104.00
2022-08-29T11:00:38.033Z,10060.00
2022-08-29T11:01:38.090Z,10216.00
2022-08-29T11:02:37.971Z,10292.00
2022-08-29T11:03:37.969Z,10432.00
2022-08-29T11:04:37.949Z,10436.00
2022-08-29T11:05:37.954Z,10604.00
2022-08-29T11:07:37.897Z,10868.00
2022-08-29T11:08:37.921Z,10840.00
2022-08-29T11:09:37.900Z,10752.00
2022-08-29T11:10:38.008Z,10976.00
2022-08-29T11:11:37.881Z,10912.00
2022-08-29T11:12:37.842Z,10960.00
2022-08-29T11:13:37.854Z,10920.00
2022-08-29T11:14:37.875Z,10920.00
2022-08-29T11:15:37.823Z,10860.00
2022-08-29T11:16:37.908Z,10828.00
2022-08-29T11:17:37.838Z,10808.00
2022-08-29T11:18:37.805Z,10868.00
2022-08-29T11:19:37.794Z,10856.00
2022-08-29T11:20:37.790Z,11052.00
2022-08-29T11:21:37.810Z,10908.00
2022-08-29T11:22:37.768Z,10856.00
2022-08-29T11:23:37.741Z,10928.00
2022-08-29T11:24:38.153Z,11028.00
2022-08-29T11:25:37.694Z,11124.00
2022-08-29T11:26:37.681Z,10896.00
2022-08-29T11:27:37.671Z,11204.00
2022-08-29T11:28:37.735Z,11364.00
2022-08-29T11:29:37.680Z,11460.00
2022-08-29T11:30:41.014Z,11412.00
2022-08-29T11:31:38.652Z,11328.00
2022-08-29T11:32:37.707Z,11248.00
2022-08-29T11:33:37.651Z,11508.00
2022-08-29T11:34:37.611Z,11672.00
2022-08-29T11:35:37.598Z,11712.00
2022-08-29T11:36:37.579Z,11724.00
2022-08-29T11:37:37.601Z,11724.00
2022-08-29T11:38:37.567Z,11296.00
2022-08-29T11:39:37.545Z,11132.00
2022-08-29T11:41:38.561Z,11424.00
2022-08-29T11:42:53.552Z,11560.00
2022-08-29T11:43:38.514Z,11532.00
2022-08-29T11:44:37.488Z,11452.00
2022-08-29T11:45:37.771Z,11304.00
2022-08-29T11:46:37.593Z,11308.00
2022-08-29T11:47:40.552Z,10980.00
2022-08-29T11:48:37.474Z,11648.00
2022-08-29T11:49:37.465Z,11756.00
2022-08-29T11:50:37.417Z,11904.00
2022-08-29T11:51:37.447Z,11856.00
2022-08-29T11:52:37.413Z,10236.00
2022-08-29T11:53:37.402Z,12084.00
2022-08-29T11:54:37.473Z,12012.00
2022-08-29T11:55:37.367Z,12128.00
2022-08-29T11:56:37.387Z,12012.00
2022-08-29T11:57:37.376Z,11760.00
2022-08-29T11:58:37.332Z,12300.00
2022-08-29T11:59:37.339Z,12360.00
2022-08-29T12:00:37.319Z,12332.00
2022-08-29T12:01:37.321Z,12244.00
2022-08-29T12:02:37.304Z,12180.00
2022-08-29T12:03:37.746Z,11736.00
2022-08-29T12:04:37.310Z,11496.00
2022-08-29T12:05:37.445Z,11608.00
2022-08-29T12:06:37.261Z,11764.00
2022-08-29T12:07:37.255Z,11912.00
2022-08-29T12:08:38.100Z,11972.00
2022-08-29T12:09:37.210Z,11612.00
2022-08-29T12:10:37.230Z,11996.00
2022-08-29T12:11:37.204Z,11852.00
2022-08-29T12:12:37.196Z,12012.00
2022-08-29T12:13:37.186Z,12280.00
2022-08-29T12:14:38.184Z,12420.00
2022-08-29T12:15:37.218Z,12448.00
2022-08-29T12:16:37.231Z,12472.00
2022-08-29T12:18:00.288Z,12536.00
2022-08-29T12:18:38.113Z,12632.00
2022-08-29T12:19:37.166Z,12636.00
2022-08-29T12:20:37.111Z,12640.00
2022-08-29T12:21:37.110Z,12508.00
2022-08-29T12:22:37.109Z,12588.00
2022-08-29T12:23:37.054Z,12708.00
2022-08-29T12:24:37.038Z,12736.00
2022-08-29T12:25:37.047Z,12960.00
2022-08-29T12:26:37.551Z,13044.00
2022-08-29T12:27:37.012Z,13080.00
2022-08-29T12:28:36.988Z,13084.00
2022-08-29T12:29:44.764Z,13112.00
2022-08-29T12:30:37.965Z,13184.00